AirNav   Everest Fuels
 
 953 users online  

7TS2 Alison Air Park
San Marcos, Texas, USA

GOING TO SAN MARCOS?


FAA INFORMATION EFFECTIVE 07 NOVEMBER 2019

Location

FAA Identifier: 7TS2
Lat/Long: 29-49-52.7970N 097-53-21.0140W
29-49.879950N 097-53.350233W
29.8313325,-97.8891706
(estimated)
Elevation: 630 ft. / 192 m (estimated)
Variation: 07E (1985)
From city: 4 miles SE of SAN MARCOS, TX
Time zone: UTC -6 (UTC -5 during Daylight Saving Time)
Zip code: 78655

Airport Operations

Airport use: Private use. Permission required prior to landing
Activation date: 07/1985
Control tower: no
ARTCC: HOUSTON CENTER
FSS: SAN ANGELO FLIGHT SERVICE STATION
Attendance: MON-FRI 1800-2300, ALL SAT-SUN 0900-2300
Wind indicator: lighted
Segmented circle: no

Airport Communications

WX AWOS-3PT at HYI (4 nm N): PHONE 512-353-8005
WX ASOS at BAZ (11 nm SW): 119.325 (830-629-7979)

Nearby radio navigation aids

VOR radial/distance  VOR name  Freq  Var
RNDr043/27.9RANDOLPH VORTAC112.3005E
SATr061/31.9SAN ANTONIO VORTAC116.8008E
CWKr204/37.8CENTEX VORTAC112.8006E

 
NDB name  Hdg/Dist  Freq  Var  ID
GARYS151/8.227207ERU .-. ..-

Airport Services

Runway Information

Runway 17/35

Dimensions: 1950 x 26 ft. / 594 x 8 m
Surface: gravel
RUNWAY 17  RUNWAY 35
Traffic pattern: leftleft
Displaced threshold: 300 ft.no
Obstructions: 5 ft. fencepline

Airport Ownership and Management from official FAA records

Ownership: Privately-owned
Owner: RAY L. ENDER
725 SCULL RD
SAN MARCOS, TX 78666
Phone 512-396-0765
Manager: RAY L. ENDER
725 SCULL RD
SAN MARCOS, TX 78666
Phone 512-396-0765
ADDITIONAL CONTACT: SIDNEY DECKER 403 SCULL RD SAN MARCOS TX 78666 512-781-2446

Airport Operational Statistics

Aircraft based on the field: 5
Single engine airplanes: 4
Gliders airplanes: 1
    

Additional Remarks

FOR CD CTC AUSTIN APCH AT 512-269-7865.

Instrument Procedures

There are no published instrument procedures at 7TS2.

Some nearby airports with instrument procedures:

KHYI - San Marcos Regional Airport (4 nm N)
KBAZ - New Braunfels Regional Airport (11 nm SW)
50R - Lockhart Municipal Airport (11 nm E)
KAUS - Austin-Bergstrom International Airport (25 nm NE)
KRND - Randolph Air Force Base (27 nm SW)
 
Loc | Ops | Rwys | IFR | FBO | Links
Com | Nav | Svcs | Stats | Notes
Area around 7TS2 (Alison Air Park)
 
Road maps at: MapQuest Bing Google
 
Aerial photo
WARNING: Photo may not be current or correct
Aerial photo of 7TS2 (Alison Air Park)
Photo taken 12-Feb-2008

Do you have a better or more recent aerial photo of Alison Air Park that you would like to share? If so, please send us your photo.

 
Sectional chart

 
Airport distance calculator
Flying to Alison Air Park? Find the distance to fly.

From to 7TS2

Sunrise and sunset
Times for 21-Nov-2019
 Local
(UTC-6)
 Zulu
(UTC)
Morning civil twilight06:3712:37
Sunrise07:0213:02
Sunset17:3323:33
Evening civil twilight17:5823:58

Current date and time
Zulu (UTC)  22-Nov-2019 02:13:45
Local (UTC-6)  21-Nov-2019 20:13:45
 
METAR
KHYI 
3nm N 
220156Z AUTO 15009KT 10SM OVC041 23/19 A2994 RMK AO2 SLP131 T02280189
KBAZ 
11nm SW 
220151Z AUTO 14009KT 10SM OVC038 23/18 A2991 RMK AO2 SLP121 T02280183
KSEQ 
16nm S 
220158Z AUTO 13005KT 10SM OVC043 22/19 A2996 RMK AO2 SLP143 T02230185
TAF
NOTAMs
Click for the latest NOTAMs
NOTAMs are issued by the DoD/FAA and will open in a separate window not controlled by AirNav.

 

 
 

Would you like to see your business listed on this page?

 If your business provides an interesting product or service to pilots, flight crews, aircraft, or users of the Alison Air Park, you should consider listing it here.  To start the listing process, click on the button below
 
Add a business
 

Other Pages about Alison Air Park

Update a link
 
Copyright © AirNav, LLC. All rights reserved. Privacy Policy  Contact